This is the latest recevied weather packets stored in our database for station/object HS1WDC-1. If no packets are shown the sender has not sent any weather packets the latest 10 day(s).
| Time | Temp. | Humidity | Pressure | Rain* | Wind** | Luminosity | Snow |
|---|---|---|---|---|---|---|---|
| 1777636472 | 36.11° C | 48% | 1005 hPa | - | - | 0 W/m² | - |
| 1777635547 | 36.11° C | 46% | 1006 hPa | - | - | 0 W/m² | - |
| 1777634623 | 36.67° C | 44% | 1006 hPa | - | - | 0 W/m² | - |
| 1777633699 | 37.22° C | 44% | 1005 hPa | - | - | 0 W/m² | - |
| 1777632774 | 37.22° C | 44% | 1005 hPa | - | - | 0 W/m² | - |
| 1777631849 | 37.22° C | 44% | 1005 hPa | - | - | 0 W/m² | - |
| 1777630926 | 37.78° C | 42% | 1005 hPa | - | - | 0 W/m² | - |
| 1777630001 | 38.89° C | 39% | 1006 hPa | - | - | 0 W/m² | - |
| 1777629077 | 39.44° C | 40% | 1005 hPa | - | - | 0 W/m² | - |
| 1777628152 | 40° C | 39% | 1005 hPa | - | - | 0 W/m² | - |
| 1777627229 | 40.56° C | 38% | 1004 hPa | - | - | 0 W/m² | - |
| 1777626304 | 40° C | 39% | 1004 hPa | - | - | 0 W/m² | - |
| 1777625379 | 40° C | 39% | 1005 hPa | - | - | 0 W/m² | - |
| 1777624455 | 40° C | 40% | 1005 hPa | - | - | 0 W/m² | - |
| 1777623530 | 40.56° C | 40% | 1006 hPa | - | - | 0 W/m² | - |
| 1777622606 | 40.56° C | 39% | 1006 hPa | - | - | 0 W/m² | - |
| 1777621682 | 40° C | 40% | 1006 hPa | - | - | 0 W/m² | - |
| 1777620757 | 40.56° C | 39% | 1006 hPa | - | - | 0 W/m² | - |
| 1777619833 | 40° C | 40% | 1006 hPa | - | - | 0 W/m² | - |
| 1777618909 | 40° C | 39% | 1006 hPa | - | - | 0 W/m² | - |
| 1777617984 | 40° C | 39% | 1007 hPa | - | - | 0 W/m² | - |
| 1777617060 | 40° C | 39% | 1007 hPa | - | - | 0 W/m² | - |
| 1777616136 | 40° C | 39% | 1007 hPa | - | - | 0 W/m² | - |
| 1777615211 | 38.89° C | 41% | 1008 hPa | - | - | 0 W/m² | - |
| 1777614287 | 39.44° C | 42% | 1008 hPa | - | - | 0 W/m² | - |
* Rain since midnight (hover to see other rain measurements)
** Current wind speed in m/s (hover to see current wind gust speed)